createdAt,value
2018-03-19T00:01:06.048Z,-1.90
2018-03-19T00:03:34.814Z,-1.90
2018-03-19T00:06:02.335Z,-1.90
2018-03-19T00:08:30.782Z,-1.90
2018-03-19T00:10:58.315Z,-1.90
2018-03-19T00:13:25.900Z,-1.90
2018-03-19T00:15:53.460Z,-1.90
2018-03-19T00:18:21.021Z,-1.90
2018-03-19T00:20:48.598Z,-1.90
2018-03-19T00:23:16.169Z,-1.90
2018-03-19T00:25:44.131Z,-1.90
2018-03-19T00:28:11.697Z,-1.90
2018-03-19T00:30:39.799Z,-1.90
2018-03-19T00:33:07.451Z,-1.90
2018-03-19T00:35:35.649Z,-1.90
2018-03-19T00:38:04.018Z,-1.90
2018-03-19T00:40:31.817Z,-1.90
2018-03-19T00:42:59.398Z,-2.00
2018-03-19T00:45:26.937Z,-2.00
2018-03-19T00:47:54.525Z,-2.00
2018-03-19T00:50:22.174Z,-1.90
2018-03-19T00:52:49.750Z,-2.00
2018-03-19T00:55:17.285Z,-2.00
2018-03-19T00:57:44.990Z,-2.00
2018-03-19T01:00:12.594Z,-2.10
2018-03-19T01:02:40.164Z,-2.10
2018-03-19T01:05:07.760Z,-2.10
2018-03-19T01:07:35.725Z,-2.10
2018-03-19T01:10:03.671Z,-2.10
2018-03-19T01:12:31.274Z,-2.10
2018-03-19T01:14:58.851Z,-2.10
2018-03-19T01:17:26.417Z,-2.10
2018-03-19T01:19:54.388Z,-2.10
2018-03-19T01:22:21.947Z,-2.10
2018-03-19T01:24:49.511Z,-2.10
2018-03-19T01:27:17.100Z,-2.10
2018-03-19T01:29:44.673Z,-2.10
2018-03-19T01:32:12.230Z,-2.10
2018-03-19T01:34:39.830Z,-2.10
2018-03-19T01:37:07.375Z,-2.10
2018-03-19T01:39:34.934Z,-2.10
2018-03-19T01:42:02.491Z,-2.20
2018-03-19T01:44:30.037Z,-2.10
2018-03-19T01:46:57.650Z,-2.10
2018-03-19T01:49:25.214Z,-2.10
2018-03-19T01:51:52.870Z,-2.10
2018-03-19T01:54:20.410Z,-2.20
2018-03-19T01:56:47.995Z,-2.10
2018-03-19T01:59:15.618Z,-2.20
2018-03-19T02:01:43.191Z,-2.10
2018-03-19T02:04:10.752Z,-2.10
2018-03-19T02:06:38.314Z,-2.10
2018-03-19T02:09:05.856Z,-2.10
2018-03-19T02:11:33.461Z,-2.10
2018-03-19T02:14:01.082Z,-2.10
2018-03-19T02:16:29.019Z,-2.10
2018-03-19T02:18:56.988Z,-2.00
2018-03-19T02:21:25.591Z,-2.00
2018-03-19T02:23:53.543Z,-2.00
2018-03-19T02:26:21.507Z,-2.00
2018-03-19T02:28:49.052Z,-2.00
2018-03-19T02:31:16.630Z,-2.00
2018-03-19T02:33:44.166Z,-2.10
2018-03-19T02:36:11.749Z,-2.10
2018-03-19T02:38:39.350Z,-2.10
2018-03-19T02:41:06.883Z,-2.10
2018-03-19T02:43:34.877Z,-2.10
2018-03-19T02:46:02.410Z,-2.10
2018-03-19T02:48:30.403Z,-2.10
2018-03-19T02:50:57.978Z,-2.10
2018-03-19T02:53:25.560Z,-2.10
2018-03-19T02:55:53.105Z,-2.10
2018-03-19T02:58:20.659Z,-2.10
2018-03-19T03:00:48.211Z,-2.10
2018-03-19T03:03:15.809Z,-2.00
2018-03-19T03:05:43.371Z,-2.10
2018-03-19T03:08:10.952Z,-2.00
2018-03-19T03:10:38.498Z,-2.00
2018-03-19T03:13:07.177Z,-2.00
2018-03-19T03:15:34.752Z,-2.00
2018-03-19T03:18:03.175Z,-2.00
2018-03-19T03:20:30.733Z,-2.00
2018-03-19T03:22:58.302Z,-2.00
2018-03-19T03:25:25.876Z,-2.00
2018-03-19T03:27:53.426Z,-1.90
2018-03-19T03:30:21.003Z,-1.90
2018-03-19T03:32:48.600Z,-2.00
2018-03-19T03:35:16.555Z,-2.00
2018-03-19T03:37:44.087Z,-2.00
2018-03-19T03:40:11.673Z,-2.00
2018-03-19T03:42:39.794Z,-2.00
2018-03-19T03:45:07.363Z,-2.00
2018-03-19T03:47:34.920Z,-2.10
2018-03-19T03:50:02.527Z,-2.10
2018-03-19T03:52:30.767Z,-2.10
2018-03-19T03:54:58.332Z,-2.10
2018-03-19T03:57:25.942Z,-2.10
2018-03-19T03:59:53.535Z,-2.10
2018-03-19T04:02:21.970Z,-2.10
2018-03-19T04:04:49.955Z,-2.20
2018-03-19T04:07:17.894Z,-2.30
2018-03-19T04:09:45.439Z,-2.30
2018-03-19T04:12:13.014Z,-2.30
2018-03-19T04:14:40.606Z,-2.30
2018-03-19T04:17:08.159Z,-2.40
2018-03-19T04:19:36.108Z,-2.40
2018-03-19T04:22:03.664Z,-2.50
2018-03-19T04:24:31.219Z,-2.50
2018-03-19T04:26:58.911Z,-2.50
2018-03-19T04:29:27.684Z,-2.60
2018-03-19T04:31:55.632Z,-2.60
2018-03-19T04:34:23.180Z,-2.60
2018-03-19T04:36:50.742Z,-2.70
2018-03-19T04:39:18.290Z,-2.70
2018-03-19T04:41:45.850Z,-2.70
2018-03-19T04:44:13.422Z,-2.70
2018-03-19T04:46:41.003Z,-2.70
2018-03-19T04:49:08.581Z,-2.70
2018-03-19T04:51:36.563Z,-2.80
2018-03-19T04:54:04.529Z,-2.80
2018-03-19T04:56:32.952Z,-2.80
2018-03-19T04:59:00.507Z,-2.80
2018-03-19T05:01:28.074Z,-2.80
2018-03-19T05:03:55.655Z,-2.80
2018-03-19T05:06:23.218Z,-2.80
2018-03-19T05:08:50.781Z,-2.90
2018-03-19T05:11:18.361Z,-2.90
2018-03-19T05:13:46.346Z,-2.90
2018-03-19T05:16:13.929Z,-2.90
2018-03-19T05:18:41.507Z,-3.00
2018-03-19T05:21:09.259Z,-3.00
2018-03-19T05:23:36.838Z,-3.10
2018-03-19T05:26:04.414Z,-3.10
2018-03-19T05:28:32.892Z,-3.10
2018-03-19T05:31:00.461Z,-3.10
2018-03-19T05:33:28.041Z,-3.20
2018-03-19T05:35:56.746Z,-3.20
2018-03-19T05:38:24.317Z,-3.20
2018-03-19T05:40:51.954Z,-3.20
2018-03-19T05:43:19.517Z,-3.20
2018-03-19T05:45:47.496Z,-3.10
2018-03-19T05:48:15.043Z,-3.10
2018-03-19T05:50:42.658Z,-3.10
2018-03-19T05:53:10.237Z,-3.10
2018-03-19T05:55:38.200Z,-3.10
2018-03-19T05:58:05.772Z,-3.10
2018-03-19T06:00:33.738Z,-3.00
2018-03-19T06:03:02.555Z,-3.00
2018-03-19T06:05:30.160Z,-3.00
2018-03-19T06:07:57.745Z,-3.00
2018-03-19T06:10:25.358Z,-2.90
2018-03-19T06:12:53.321Z,-2.80
2018-03-19T06:15:20.952Z,-2.80
2018-03-19T06:17:48.468Z,-2.80
2018-03-19T06:20:16.026Z,-2.70
2018-03-19T06:22:43.625Z,-2.70
2018-03-19T06:25:11.628Z,-2.70
2018-03-19T06:27:39.213Z,-2.70
2018-03-19T06:30:06.840Z,-2.70
2018-03-19T06:32:34.387Z,-2.70
2018-03-19T06:35:02.345Z,-2.70
2018-03-19T06:37:30.295Z,-2.70
2018-03-19T06:39:57.913Z,-2.70
2018-03-19T06:42:25.470Z,-2.70
2018-03-19T06:44:53.189Z,-2.60
2018-03-19T06:47:20.985Z,-2.60
2018-03-19T06:49:48.650Z,-2.50
2018-03-19T06:52:16.118Z,-2.40
2018-03-19T06:54:43.678Z,-2.30
2018-03-19T06:57:11.265Z,-2.20
2018-03-19T06:59:38.908Z,-2.10
2018-03-19T07:02:06.517Z,-2.00
2018-03-19T07:04:34.316Z,-1.90
2018-03-19T07:07:01.896Z,-1.80
2018-03-19T07:09:29.529Z,-1.70
2018-03-19T07:11:57.096Z,-1.60
2018-03-19T07:14:24.714Z,-1.50
2018-03-19T07:16:52.292Z,-1.60
2018-03-19T07:19:20.276Z,-1.50
2018-03-19T07:21:47.910Z,-1.50
2018-03-19T07:24:15.737Z,-1.40
2018-03-19T07:26:43.313Z,-1.20
2018-03-19T07:29:11.828Z,-1.10
2018-03-19T07:31:39.985Z,-1.10
2018-03-19T07:34:07.588Z,-1.10
2018-03-19T07:36:35.243Z,-1.10
2018-03-19T07:39:02.842Z,-0.90
2018-03-19T07:41:30.429Z,-0.70
2018-03-19T07:43:58.044Z,-0.70
2018-03-19T07:46:25.691Z,-0.70
2018-03-19T07:48:53.255Z,-1.00
2018-03-19T07:51:20.850Z,-1.00
2018-03-19T07:53:48.468Z,-0.90
2018-03-19T07:56:16.181Z,-0.60
2018-03-19T07:58:43.771Z,-0.40
2018-03-19T08:01:11.736Z,-0.20
2018-03-19T08:03:39.753Z,0.00
2018-03-19T08:06:07.389Z,0.00
2018-03-19T08:08:34.979Z,0.20
2018-03-19T08:11:02.585Z,0.30
2018-03-19T08:13:30.557Z,0.40
2018-03-19T08:15:58.538Z,0.40
2018-03-19T08:18:26.492Z,0.50
2018-03-19T08:20:54.059Z,0.50
2018-03-19T08:23:22.023Z,0.70
2018-03-19T08:25:49.601Z,0.70
2018-03-19T08:28:17.161Z,0.80
2018-03-19T08:30:44.984Z,1.00
2018-03-19T08:33:12.540Z,1.00
2018-03-19T08:35:40.107Z,1.20
2018-03-19T08:38:07.694Z,1.30
2018-03-19T08:40:36.930Z,1.50
2018-03-19T08:43:04.472Z,1.50
2018-03-19T08:45:32.025Z,1.40
2018-03-19T08:47:59.603Z,1.70
2018-03-19T08:50:27.265Z,1.90
2018-03-19T08:52:54.904Z,2.00
2018-03-19T08:55:24.776Z,2.00
2018-03-19T08:57:52.397Z,2.00
2018-03-19T09:00:19.944Z,2.30
2018-03-19T09:02:47.594Z,2.40
2018-03-19T09:05:15.559Z,2.60
2018-03-19T09:07:43.509Z,2.70
2018-03-19T09:10:11.080Z,2.70
2018-03-19T09:12:38.630Z,2.70
2018-03-19T09:15:06.192Z,2.70
2018-03-19T09:17:33.712Z,2.80
2018-03-19T09:20:01.316Z,2.80
2018-03-19T09:22:28.852Z,2.60
2018-03-19T09:24:56.426Z,2.60
2018-03-19T09:27:24.043Z,2.80
2018-03-19T09:29:51.606Z,2.70
2018-03-19T09:32:19.233Z,2.60
2018-03-19T09:34:47.150Z,2.10
2018-03-19T09:37:14.724Z,2.10
2018-03-19T09:39:42.285Z,2.10
2018-03-19T09:42:09.843Z,2.30
2018-03-19T09:44:37.402Z,2.50
2018-03-19T09:47:04.953Z,2.50
2018-03-19T09:49:32.537Z,2.70
2018-03-19T09:52:00.076Z,3.10
2018-03-19T09:54:28.846Z,3.70
2018-03-19T09:56:56.402Z,4.40
2018-03-19T09:59:23.954Z,4.80
2018-03-19T10:01:51.511Z,5.10
2018-03-19T10:04:19.048Z,5.30
2018-03-19T10:06:47.993Z,5.40
2018-03-19T10:09:15.580Z,5.40
2018-03-19T10:11:43.569Z,5.30
2018-03-19T10:14:11.139Z,5.30
2018-03-19T10:16:38.708Z,5.00
2018-03-19T10:19:06.313Z,5.00
2018-03-19T10:21:34.846Z,4.80
2018-03-19T10:24:02.415Z,4.90
2018-03-19T10:26:29.937Z,4.80
2018-03-19T10:28:57.901Z,4.10
2018-03-19T10:31:26.385Z,4.10
2018-03-19T10:33:53.939Z,4.30
2018-03-19T10:36:21.494Z,4.60
2018-03-19T10:38:49.277Z,5.30
2018-03-19T10:41:17.327Z,5.60
2018-03-19T10:43:45.006Z,5.50
2018-03-19T10:46:12.577Z,5.60
2018-03-19T10:48:40.220Z,6.20
2018-03-19T10:51:07.798Z,6.50
2018-03-19T10:53:35.357Z,6.70
2018-03-19T10:56:02.921Z,6.30
2018-03-19T10:58:30.460Z,5.90
2018-03-19T11:01:04.156Z,5.80
2018-03-19T11:03:31.734Z,5.80
2018-03-19T11:06:05.399Z,5.20
2018-03-19T11:08:33.688Z,5.30
2018-03-19T11:11:01.274Z,5.10
2018-03-19T11:13:29.229Z,5.10
2018-03-19T11:15:57.190Z,5.70
2018-03-19T11:18:24.774Z,5.70
2018-03-19T11:20:52.890Z,5.90
2018-03-19T11:23:20.447Z,6.30
2018-03-19T11:25:47.974Z,6.60
2018-03-19T11:28:15.571Z,7.00
2018-03-19T11:30:43.124Z,7.10
2018-03-19T11:33:10.655Z,6.80
2018-03-19T11:35:38.205Z,6.70
2018-03-19T11:38:06.169Z,7.30
2018-03-19T11:40:34.110Z,7.50
2018-03-19T11:43:01.666Z,7.50
2018-03-19T11:45:30.169Z,7.10
2018-03-19T11:47:58.117Z,7.60
2018-03-19T11:50:25.681Z,7.60
2018-03-19T11:52:53.545Z,7.90
2018-03-19T11:55:21.093Z,7.80
2018-03-19T11:57:48.707Z,7.90
2018-03-19T12:00:16.269Z,8.20
2018-03-19T12:02:43.817Z,9.00
2018-03-19T12:05:11.454Z,9.70
2018-03-19T12:07:39.083Z,9.60
2018-03-19T12:10:06.681Z,10.70
2018-03-19T12:12:34.241Z,12.50
2018-03-19T12:15:02.179Z,17.00
2018-03-19T12:17:29.739Z,17.00
2018-03-19T12:19:57.309Z,15.90
2018-03-19T12:22:24.968Z,14.70
2018-03-19T12:24:52.525Z,12.10
2018-03-19T12:27:20.098Z,11.30
2018-03-19T12:29:47.698Z,11.60
2018-03-19T12:32:15.657Z,15.60
2018-03-19T12:34:43.655Z,16.10
2018-03-19T12:37:11.190Z,16.10
2018-03-19T12:39:38.764Z,15.10
2018-03-19T12:42:06.332Z,15.00
2018-03-19T12:44:34.580Z,14.50
2018-03-19T12:47:02.546Z,18.10
2018-03-19T12:49:30.086Z,18.10
2018-03-19T12:51:57.650Z,18.40
2018-03-19T12:54:25.245Z,17.70
2018-03-19T12:56:54.124Z,18.20
2018-03-19T12:59:21.666Z,18.20
2018-03-19T13:01:49.242Z,18.10
2018-03-19T13:04:17.169Z,18.20
2018-03-19T13:06:44.766Z,18.20
2018-03-19T13:09:12.752Z,19.40
2018-03-19T13:11:40.714Z,19.70
2018-03-19T13:14:08.997Z,19.70
2018-03-19T13:16:36.574Z,18.50
2018-03-19T13:19:04.184Z,17.30
2018-03-19T13:21:32.668Z,15.70
2018-03-19T13:24:00.248Z,15.30
2018-03-19T13:26:28.305Z,14.90
2018-03-19T13:28:55.888Z,14.90
2018-03-19T13:31:23.524Z,13.30
2018-03-19T13:33:51.053Z,13.80
2018-03-19T13:36:18.626Z,14.40
2018-03-19T13:38:46.214Z,14.50
2018-03-19T13:41:14.172Z,13.30
2018-03-19T13:43:41.778Z,13.30
2018-03-19T13:46:09.384Z,12.90
2018-03-19T13:48:36.925Z,13.70
2018-03-19T13:51:04.526Z,13.30
2018-03-19T13:53:32.540Z,13.20
2018-03-19T13:56:00.025Z,13.20
2018-03-19T13:58:27.641Z,13.80
2018-03-19T14:00:55.181Z,13.20
2018-03-19T14:03:22.785Z,13.10
2018-03-19T14:05:50.335Z,13.10
2018-03-19T14:08:17.890Z,12.00
2018-03-19T14:10:45.428Z,12.30
2018-03-19T14:13:12.978Z,13.70
2018-03-19T14:15:40.556Z,15.50
2018-03-19T14:18:08.205Z,16.80
2018-03-19T14:20:35.758Z,17.00
2018-03-19T14:23:03.319Z,16.30
2018-03-19T14:25:31.259Z,16.90
2018-03-19T14:27:59.233Z,17.00
2018-03-19T14:30:26.693Z,17.30
2018-03-19T14:32:55.545Z,16.90
2018-03-19T14:35:23.095Z,16.80
2018-03-19T14:37:53.111Z,16.30
2018-03-19T14:40:21.219Z,13.90
2018-03-19T14:42:48.760Z,13.90
2018-03-19T14:45:16.329Z,13.20
2018-03-19T14:47:43.890Z,13.80
2018-03-19T14:50:11.492Z,14.00
2018-03-19T14:52:39.077Z,13.90
2018-03-19T14:55:10.212Z,14.20
2018-03-19T14:57:38.678Z,14.60
2018-03-19T15:00:06.237Z,12.40
2018-03-19T15:02:34.210Z,10.50
2018-03-19T15:05:01.798Z,10.50
2018-03-19T15:07:29.364Z,10.50
2018-03-19T15:09:56.934Z,10.70
2018-03-19T15:12:24.500Z,11.00
2018-03-19T15:14:52.109Z,11.90
2018-03-19T15:17:19.709Z,12.80
2018-03-19T15:19:47.317Z,14.40
2018-03-19T15:22:15.326Z,17.00
2018-03-19T15:24:44.188Z,17.00
2018-03-19T15:27:14.561Z,15.60
2018-03-19T15:29:42.122Z,15.60
2018-03-19T15:32:09.662Z,15.00
2018-03-19T15:34:37.207Z,13.90
2018-03-19T15:37:04.774Z,14.40
2018-03-19T15:39:32.318Z,14.60
2018-03-19T15:41:59.903Z,15.10
2018-03-19T15:44:27.460Z,14.60
2018-03-19T15:46:55.021Z,14.60
2018-03-19T15:49:23.358Z,14.40
2018-03-19T15:51:51.302Z,12.40
2018-03-19T15:54:18.917Z,10.60
2018-03-19T15:56:46.430Z,9.60
2018-03-19T15:59:14.419Z,9.00
2018-03-19T16:01:42.345Z,8.40
2018-03-19T16:04:09.912Z,8.40
2018-03-19T16:06:37.486Z,8.40
2018-03-19T16:09:05.033Z,8.60
2018-03-19T16:11:32.614Z,9.60
2018-03-19T16:14:00.590Z,12.30
2018-03-19T16:16:29.063Z,12.30
2018-03-19T16:18:56.610Z,13.20
2018-03-19T16:21:24.198Z,13.00
2018-03-19T16:23:51.759Z,12.30
2018-03-19T16:26:19.326Z,11.20
2018-03-19T16:28:46.882Z,10.20
2018-03-19T16:31:14.461Z,9.60
2018-03-19T16:33:41.994Z,9.10
2018-03-19T16:36:09.932Z,8.90
2018-03-19T16:38:37.499Z,8.50
2018-03-19T16:41:05.066Z,7.70
2018-03-19T16:43:33.266Z,6.60
2018-03-19T16:46:02.180Z,5.60
2018-03-19T16:48:29.789Z,4.90
2018-03-19T16:50:57.379Z,4.30
2018-03-19T16:53:24.995Z,3.90
2018-03-19T16:55:53.217Z,3.80
2018-03-19T16:58:20.825Z,3.60
2018-03-19T17:00:48.357Z,3.30
2018-03-19T17:03:15.930Z,3.10
2018-03-19T17:05:44.861Z,2.90
2018-03-19T17:08:12.413Z,2.80
2018-03-19T17:10:40.007Z,2.80
2018-03-19T17:13:07.614Z,3.20
2018-03-19T17:15:35.228Z,3.10
2018-03-19T17:18:03.213Z,2.80
2018-03-19T17:20:30.782Z,2.80
2018-03-19T17:22:58.474Z,3.00
2018-03-19T17:25:26.029Z,2.90
2018-03-19T17:27:53.645Z,2.60
2018-03-19T17:30:21.234Z,2.20
2018-03-19T17:32:48.753Z,1.90
2018-03-19T17:35:16.386Z,1.50
2018-03-19T17:37:44.690Z,1.30
2018-03-19T17:40:12.266Z,1.20
2018-03-19T17:42:39.831Z,1.00
2018-03-19T17:45:07.718Z,0.90
2018-03-19T17:47:35.287Z,0.80
2018-03-19T17:50:02.888Z,0.70
2018-03-19T17:52:30.715Z,0.60
2018-03-19T17:55:01.452Z,0.50
2018-03-19T17:57:29.040Z,0.50
2018-03-19T17:59:57.747Z,0.40
2018-03-19T18:02:27.251Z,0.40
2018-03-19T18:04:55.447Z,0.30
2018-03-19T18:07:23.830Z,0.20
2018-03-19T18:09:52.220Z,0.20
2018-03-19T18:12:21.006Z,0.10
2018-03-19T18:14:49.645Z,0.10
2018-03-19T18:17:18.383Z,0.00
2018-03-19T18:19:46.757Z,0.00
2018-03-19T18:22:14.918Z,0.00
2018-03-19T18:24:43.146Z,0.00
2018-03-19T18:27:11.424Z,-0.10
2018-03-19T18:29:39.800Z,-0.10
2018-03-19T18:32:07.695Z,-0.10
2018-03-19T18:34:35.576Z,-0.20
2018-03-19T18:37:03.718Z,-0.20
2018-03-19T18:39:31.781Z,-0.20
2018-03-19T18:42:00.124Z,-0.20
2018-03-19T18:44:28.173Z,-0.30
2018-03-19T18:46:57.286Z,-0.40
2018-03-19T18:49:25.762Z,-0.30
2018-03-19T18:51:54.026Z,-0.30
2018-03-19T18:54:50.573Z,-0.30
2018-03-19T18:57:42.305Z,-0.40
2018-03-19T19:05:48.271Z,-0.50
2018-03-19T19:15:39.489Z,-0.60
2018-03-19T19:21:09.202Z,-0.70
2018-03-19T19:23:57.772Z,-0.70
2018-03-19T19:40:14.290Z,-1.00
2018-03-19T19:46:33.505Z,-1.00
2018-03-19T19:49:04.735Z,-1.00
2018-03-19T19:51:32.700Z,-1.00
2018-03-19T19:54:07.164Z,-1.00
2018-03-19T20:49:35.879Z,-1.30
2018-03-19T21:00:48.119Z,-1.50
2018-03-19T21:03:36.237Z,-1.50
2018-03-19T21:14:28.331Z,-1.70
2018-03-19T21:17:11.232Z,-1.70
2018-03-19T21:22:58.767Z,-1.70
2018-03-19T21:25:39.474Z,-1.80
2018-03-19T21:45:56.949Z,-1.90
2018-03-19T21:51:32.467Z,-2.10
2018-03-19T21:57:21.562Z,-2.10
2018-03-19T21:59:58.518Z,-2.20
2018-03-19T22:02:35.442Z,-2.20
2018-03-19T22:05:25.338Z,-2.30
2018-03-19T22:07:59.489Z,-2.30
2018-03-19T22:10:27.448Z,-2.30
2018-03-19T22:13:03.646Z,-2.30
2018-03-19T22:15:37.546Z,-2.30
2018-03-19T22:18:05.881Z,-2.30
2018-03-19T22:20:37.633Z,-2.30
2018-03-19T22:23:05.803Z,-2.30
2018-03-19T22:25:34.523Z,-2.30
2018-03-19T22:28:02.155Z,-2.40
2018-03-19T22:30:29.846Z,-2.50
2018-03-19T22:33:00.236Z,-2.50
2018-03-19T22:35:33.665Z,-2.60
2018-03-19T22:38:44.405Z,-2.60
2018-03-19T22:41:20.266Z,-2.60
2018-03-19T22:43:51.836Z,-2.60
2018-03-19T22:46:20.061Z,-2.60
2018-03-19T22:48:50.042Z,-2.60
2018-03-19T22:51:19.135Z,-2.60
2018-03-19T22:53:48.200Z,-2.60
2018-03-19T22:56:15.988Z,-2.60
2018-03-19T22:58:44.332Z,-2.60
2018-03-19T23:01:14.439Z,-2.50
2018-03-19T23:03:46.799Z,-2.50
2018-03-19T23:09:57.564Z,-2.50
2018-03-19T23:12:39.306Z,-2.50
2018-03-19T23:15:09.719Z,-2.50
2018-03-19T23:17:37.323Z,-2.50
2018-03-19T23:20:05.401Z,-2.50
2018-03-19T23:22:33.098Z,-2.50
2018-03-19T23:25:00.730Z,-2.60
2018-03-19T23:27:28.590Z,-2.70
2018-03-19T23:29:58.942Z,-2.70
2018-03-19T23:32:26.917Z,-2.80
2018-03-19T23:34:56.012Z,-2.80
2018-03-19T23:37:23.937Z,-2.80
2018-03-19T23:39:51.590Z,-2.70
2018-03-19T23:42:19.192Z,-2.70
2018-03-19T23:44:46.914Z,-2.70
2018-03-19T23:47:15.142Z,-2.70
2018-03-19T23:49:42.773Z,-2.70
2018-03-19T23:52:10.390Z,-2.80
2018-03-19T23:54:38.397Z,-2.80
2018-03-19T23:57:05.989Z,-2.80
2018-03-19T23:59:33.574Z,-2.80
